sensor_id;sensor_type;location;lat;lon;timestamp;P1;durP1;ratioP1;P2;durP2;ratioP2
31618;SDS011;18230;51.502;7.108;2023-04-24T00:03:20;2.03;;;0.60;;
31618;SDS011;18230;51.502;7.108;2023-04-24T00:08:22;4.53;;;1.02;;
31618;SDS011;18230;51.502;7.108;2023-04-24T00:13:23;3.47;;;0.70;;
31618;SDS011;18230;51.502;7.108;2023-04-24T00:18:24;3.25;;;0.70;;
31618;SDS011;18230;51.502;7.108;2023-04-24T00:23:25;1.20;;;0.70;;
31618;SDS011;18230;51.502;7.108;2023-04-24T00:28:26;2.65;;;1.27;;
31618;SDS011;18230;51.502;7.108;2023-04-24T00:33:26;2.00;;;0.80;;
31618;SDS011;18230;51.502;7.108;2023-04-24T00:38:27;3.08;;;1.10;;
31618;SDS011;18230;51.502;7.108;2023-04-24T00:43:28;1.52;;;0.90;;
31618;SDS011;18230;51.502;7.108;2023-04-24T00:48:28;3.55;;;1.00;;
31618;SDS011;18230;51.502;7.108;2023-04-24T00:53:30;3.63;;;1.30;;
31618;SDS011;18230;51.502;7.108;2023-04-24T00:58:31;1.58;;;1.08;;
31618;SDS011;18230;51.502;7.108;2023-04-24T01:03:32;3.70;;;1.20;;
31618;SDS011;18230;51.502;7.108;2023-04-24T01:08:34;2.10;;;1.10;;
31618;SDS011;18230;51.502;7.108;2023-04-24T01:13:36;4.38;;;1.13;;
31618;SDS011;18230;51.502;7.108;2023-04-24T01:18:36;3.67;;;1.42;;
31618;SDS011;18230;51.502;7.108;2023-04-24T01:23:38;4.22;;;1.90;;
31618;SDS011;18230;51.502;7.108;2023-04-24T01:28:39;3.83;;;1.50;;
31618;SDS011;18230;51.502;7.108;2023-04-24T01:33:40;3.10;;;1.60;;
31618;SDS011;18230;51.502;7.108;2023-04-24T01:38:42;4.93;;;1.77;;
31618;SDS011;18230;51.502;7.108;2023-04-24T01:43:43;7.18;;;2.30;;
31618;SDS011;18230;51.502;7.108;2023-04-24T01:48:45;3.70;;;2.10;;
31618;SDS011;18230;51.502;7.108;2023-04-24T01:53:46;3.35;;;2.42;;
31618;SDS011;18230;51.502;7.108;2023-04-24T01:58:47;6.75;;;3.50;;
31618;SDS011;18230;51.502;7.108;2023-04-24T02:03:52;10.10;;;3.65;;
31618;SDS011;18230;51.502;7.108;2023-04-24T02:08:52;8.23;;;2.90;;
31618;SDS011;18230;51.502;7.108;2023-04-24T02:13:53;3.33;;;2.55;;
31618;SDS011;18230;51.502;7.108;2023-04-24T02:18:54;5.00;;;3.13;;
31618;SDS011;18230;51.502;7.108;2023-04-24T02:23:55;8.85;;;3.58;;
31618;SDS011;18230;51.502;7.108;2023-04-24T02:28:56;8.00;;;5.22;;
31618;SDS011;18230;51.502;7.108;2023-04-24T02:33:56;13.85;;;6.82;;
31618;SDS011;18230;51.502;7.108;2023-04-24T02:38:57;12.00;;;6.55;;
31618;SDS011;18230;51.502;7.108;2023-04-24T02:43:58;15.50;;;7.07;;
31618;SDS011;18230;51.502;7.108;2023-04-24T02:48:59;11.90;;;6.82;;
31618;SDS011;18230;51.502;7.108;2023-04-24T02:53:59;12.80;;;7.85;;
31618;SDS011;18230;51.502;7.108;2023-04-24T02:59:00;13.57;;;8.65;;
31618;SDS011;18230;51.502;7.108;2023-04-24T03:04:01;17.90;;;9.18;;
31618;SDS011;18230;51.502;7.108;2023-04-24T03:09:02;19.58;;;9.80;;
31618;SDS011;18230;51.502;7.108;2023-04-24T03:14:03;21.10;;;9.65;;
31618;SDS011;18230;51.502;7.108;2023-04-24T03:19:04;19.23;;;9.60;;
31618;SDS011;18230;51.502;7.108;2023-04-24T03:24:05;19.10;;;10.57;;
31618;SDS011;18230;51.502;7.108;2023-04-24T03:29:06;18.63;;;10.30;;
31618;SDS011;18230;51.502;7.108;2023-04-24T03:34:07;20.35;;;11.05;;
31618;SDS011;18230;51.502;7.108;2023-04-24T03:39:08;23.27;;;10.65;;
31618;SDS011;18230;51.502;7.108;2023-04-24T03:44:09;20.48;;;10.60;;
31618;SDS011;18230;51.502;7.108;2023-04-24T03:49:09;19.10;;;12.05;;
31618;SDS011;18230;51.502;7.108;2023-04-24T03:54:10;20.25;;;11.32;;
31618;SDS011;18230;51.502;7.108;2023-04-24T03:59:11;23.23;;;11.18;;
31618;SDS011;18230;51.502;7.108;2023-04-24T04:04:11;20.73;;;11.25;;
31618;SDS011;18230;51.502;7.108;2023-04-24T04:09:12;24.52;;;10.98;;
31618;SDS011;18230;51.502;7.108;2023-04-24T04:14:13;18.33;;;10.98;;
31618;SDS011;18230;51.502;7.108;2023-04-24T04:19:14;19.40;;;10.07;;
31618;SDS011;18230;51.502;7.108;2023-04-24T04:24:14;25.83;;;10.95;;
31618;SDS011;18230;51.502;7.108;2023-04-24T04:29:15;19.85;;;10.32;;
31618;SDS011;18230;51.502;7.108;2023-04-24T04:34:16;18.63;;;10.07;;
31618;SDS011;18230;51.502;7.108;2023-04-24T04:39:17;21.08;;;10.52;;
31618;SDS011;18230;51.502;7.108;2023-04-24T04:44:18;21.40;;;9.65;;
31618;SDS011;18230;51.502;7.108;2023-04-24T04:49:19;17.00;;;9.77;;
31618;SDS011;18230;51.502;7.108;2023-04-24T04:54:21;21.73;;;9.80;;
31618;SDS011;18230;51.502;7.108;2023-04-24T04:59:22;18.05;;;9.82;;
31618;SDS011;18230;51.502;7.108;2023-04-24T05:04:23;17.33;;;8.90;;
31618;SDS011;18230;51.502;7.108;2023-04-24T05:09:23;15.93;;;8.82;;
31618;SDS011;18230;51.502;7.108;2023-04-24T05:14:27;18.30;;;9.00;;
31618;SDS011;18230;51.502;7.108;2023-04-24T05:19:27;17.13;;;8.32;;
31618;SDS011;18230;51.502;7.108;2023-04-24T05:24:28;18.92;;;8.70;;
31618;SDS011;18230;51.502;7.108;2023-04-24T05:29:29;16.83;;;8.10;;
31618;SDS011;18230;51.502;7.108;2023-04-24T05:34:33;16.95;;;8.05;;
31618;SDS011;18230;51.502;7.108;2023-04-24T05:39:34;16.25;;;7.82;;
31618;SDS011;18230;51.502;7.108;2023-04-24T05:44:35;15.80;;;8.88;;
31618;SDS011;18230;51.502;7.108;2023-04-24T05:49:36;16.95;;;9.75;;
31618;SDS011;18230;51.502;7.108;2023-04-24T05:54:36;15.07;;;9.13;;
31618;SDS011;18230;51.502;7.108;2023-04-24T05:59:37;14.02;;;9.60;;
31618;SDS011;18230;51.502;7.108;2023-04-24T06:04:38;14.73;;;8.90;;
31618;SDS011;18230;51.502;7.108;2023-04-24T06:09:40;12.68;;;8.45;;
31618;SDS011;18230;51.502;7.108;2023-04-24T06:14:40;16.15;;;8.95;;
31618;SDS011;18230;51.502;7.108;2023-04-24T06:19:41;14.85;;;8.52;;
31618;SDS011;18230;51.502;7.108;2023-04-24T06:24:42;14.40;;;7.57;;
31618;SDS011;18230;51.502;7.108;2023-04-24T06:29:42;19.70;;;8.20;;
31618;SDS011;18230;51.502;7.108;2023-04-24T06:34:43;12.52;;;8.05;;
31618;SDS011;18230;51.502;7.108;2023-04-24T06:39:44;15.20;;;7.97;;
31618;SDS011;18230;51.502;7.108;2023-04-24T06:44:44;12.40;;;7.80;;
31618;SDS011;18230;51.502;7.108;2023-04-24T06:49:45;13.05;;;8.18;;
31618;SDS011;18230;51.502;7.108;2023-04-24T06:54:46;12.35;;;6.78;;
31618;SDS011;18230;51.502;7.108;2023-04-24T06:59:47;9.13;;;6.70;;
31618;SDS011;18230;51.502;7.108;2023-04-24T07:04:47;12.57;;;7.05;;
31618;SDS011;18230;51.502;7.108;2023-04-24T07:09:48;11.07;;;6.03;;
31618;SDS011;18230;51.502;7.108;2023-04-24T07:14:50;9.55;;;5.93;;
31618;SDS011;18230;51.502;7.108;2023-04-24T07:19:51;7.47;;;5.45;;
31618;SDS011;18230;51.502;7.108;2023-04-24T07:24:52;7.00;;;4.75;;
31618;SDS011;18230;51.502;7.108;2023-04-24T07:29:52;8.35;;;4.82;;
31618;SDS011;18230;51.502;7.108;2023-04-24T07:34:53;5.68;;;3.83;;
31618;SDS011;18230;51.502;7.108;2023-04-24T07:39:54;6.88;;;3.42;;
31618;SDS011;18230;51.502;7.108;2023-04-24T07:44:55;8.13;;;3.47;;
31618;SDS011;18230;51.502;7.108;2023-04-24T07:49:56;6.32;;;3.30;;
31618;SDS011;18230;51.502;7.108;2023-04-24T07:54:57;4.25;;;2.40;;
31618;SDS011;18230;51.502;7.108;2023-04-24T07:59:58;5.68;;;1.90;;
31618;SDS011;18230;51.502;7.108;2023-04-24T08:04:59;2.15;;;1.20;;
31618;SDS011;18230;51.502;7.108;2023-04-24T08:09:59;1.98;;;0.60;;
31618;SDS011;18230;51.502;7.108;2023-04-24T08:15:00;2.60;;;0.70;;
31618;SDS011;18230;51.502;7.108;2023-04-24T08:20:04;0.63;;;0.60;;
31618;SDS011;18230;51.502;7.108;2023-04-24T08:25:05;3.10;;;0.82;;
31618;SDS011;18230;51.502;7.108;2023-04-24T08:30:07;0.65;;;0.63;;
31618;SDS011;18230;51.502;7.108;2023-04-24T08:35:08;2.88;;;0.93;;
31618;SDS011;18230;51.502;7.108;2023-04-24T08:40:13;4.13;;;1.17;;
31618;SDS011;18230;51.502;7.108;2023-04-24T08:45:15;3.53;;;1.20;;
31618;SDS011;18230;51.502;7.108;2023-04-24T08:50:16;1.10;;;1.00;;
31618;SDS011;18230;51.502;7.108;2023-04-24T08:55:17;5.00;;;1.40;;
31618;SDS011;18230;51.502;7.108;2023-04-24T09:00:18;5.20;;;1.70;;
31618;SDS011;18230;51.502;7.108;2023-04-24T09:05:21;4.03;;;2.10;;
31618;SDS011;18230;51.502;7.108;2023-04-24T09:10:26;4.90;;;2.63;;
31618;SDS011;18230;51.502;7.108;2023-04-24T09:15:28;5.57;;;3.60;;
31618;SDS011;18230;51.502;7.108;2023-04-24T09:20:31;3.83;;;2.72;;
31618;SDS011;18230;51.502;7.108;2023-04-24T09:25:32;6.47;;;2.88;;
31618;SDS011;18230;51.502;7.108;2023-04-24T09:30:35;4.63;;;2.80;;
31618;SDS011;18230;51.502;7.108;2023-04-24T09:35:37;4.93;;;2.50;;
31618;SDS011;18230;51.502;7.108;2023-04-24T09:40:41;4.15;;;2.60;;
31618;SDS011;18230;51.502;7.108;2023-04-24T09:45:42;3.45;;;2.50;;
31618;SDS011;18230;51.502;7.108;2023-04-24T09:50:46;5.38;;;3.08;;
31618;SDS011;18230;51.502;7.108;2023-04-24T09:55:48;6.63;;;3.45;;
31618;SDS011;18230;51.502;7.108;2023-04-24T10:00:50;9.75;;;3.35;;
31618;SDS011;18230;51.502;7.108;2023-04-24T10:05:57;5.85;;;3.28;;
31618;SDS011;18230;51.502;7.108;2023-04-24T10:10:59;7.80;;;3.42;;
31618;SDS011;18230;51.502;7.108;2023-04-24T10:16:04;7.78;;;4.00;;
31618;SDS011;18230;51.502;7.108;2023-04-24T10:21:07;10.95;;;4.20;;
31618;SDS011;18230;51.502;7.108;2023-04-24T10:26:11;11.45;;;5.78;;
31618;SDS011;18230;51.502;7.108;2023-04-24T10:31:17;11.18;;;6.35;;
31618;SDS011;18230;51.502;7.108;2023-04-24T10:36:19;10.32;;;6.75;;
31618;SDS011;18230;51.502;7.108;2023-04-24T10:41:23;16.98;;;7.55;;
31618;SDS011;18230;51.502;7.108;2023-04-24T10:46:26;22.33;;;7.97;;
31618;SDS011;18230;51.502;7.108;2023-04-24T10:51:49;20.58;;;8.35;;
31618;SDS011;18230;51.502;7.108;2023-04-24T10:56:53;19.33;;;7.28;;
31618;SDS011;18230;51.502;7.108;2023-04-24T11:02:15;25.55;;;7.43;;
31618;SDS011;18230;51.502;7.108;2023-04-24T11:07:17;17.75;;;7.57;;
31618;SDS011;18230;51.502;7.108;2023-04-24T11:12:17;23.60;;;8.80;;
31618;SDS011;18230;51.502;7.108;2023-04-24T11:17:32;26.35;;;9.00;;
31618;SDS011;18230;51.502;7.108;2023-04-24T11:22:38;23.38;;;8.68;;
31618;SDS011;18230;51.502;7.108;2023-04-24T11:27:43;21.77;;;7.90;;
31618;SDS011;18230;51.502;7.108;2023-04-24T11:32:49;27.60;;;8.30;;
31618;SDS011;18230;51.502;7.108;2023-04-24T11:37:52;30.00;;;7.75;;
31618;SDS011;18230;51.502;7.108;2023-04-24T11:42:54;29.42;;;7.30;;
31618;SDS011;18230;51.502;7.108;2023-04-24T11:47:59;20.40;;;6.65;;
31618;SDS011;18230;51.502;7.108;2023-04-24T11:53:00;26.63;;;8.27;;
31618;SDS011;18230;51.502;7.108;2023-04-24T11:58:01;23.52;;;7.13;;
31618;SDS011;18230;51.502;7.108;2023-04-24T12:03:08;27.13;;;5.95;;
31618;SDS011;18230;51.502;7.108;2023-04-24T12:08:11;20.67;;;5.45;;
31618;SDS011;18230;51.502;7.108;2023-04-24T12:13:11;12.65;;;3.47;;
31618;SDS011;18230;51.502;7.108;2023-04-24T12:18:13;16.38;;;5.57;;
31618;SDS011;18230;51.502;7.108;2023-04-24T12:23:28;11.82;;;3.75;;
31618;SDS011;18230;51.502;7.108;2023-04-24T12:28:38;11.57;;;3.90;;
31618;SDS011;18230;51.502;7.108;2023-04-24T12:33:39;11.00;;;3.95;;
31618;SDS011;18230;51.502;7.108;2023-04-24T12:38:43;15.82;;;4.88;;
31618;SDS011;18230;51.502;7.108;2023-04-24T12:43:52;7.68;;;3.95;;
31618;SDS011;18230;51.502;7.108;2023-04-24T12:48:54;10.48;;;4.40;;
31618;SDS011;18230;51.502;7.108;2023-04-24T12:53:55;10.82;;;4.07;;
31618;SDS011;18230;51.502;7.108;2023-04-24T12:58:55;12.00;;;3.88;;
31618;SDS011;18230;51.502;7.108;2023-04-24T13:03:56;10.00;;;3.20;;
31618;SDS011;18230;51.502;7.108;2023-04-24T13:08:57;8.90;;;2.72;;
31618;SDS011;18230;51.502;7.108;2023-04-24T13:13:58;11.10;;;2.80;;
31618;SDS011;18230;51.502;7.108;2023-04-24T13:18:58;8.02;;;2.80;;
31618;SDS011;18230;51.502;7.108;2023-04-24T13:23:59;9.50;;;2.63;;
31618;SDS011;18230;51.502;7.108;2023-04-24T13:29:00;9.57;;;2.33;;
31618;SDS011;18230;51.502;7.108;2023-04-24T13:34:01;7.57;;;2.15;;
31618;SDS011;18230;51.502;7.108;2023-04-24T13:39:03;10.38;;;2.30;;
31618;SDS011;18230;51.502;7.108;2023-04-24T13:44:05;8.85;;;1.80;;
31618;SDS011;18230;51.502;7.108;2023-04-24T13:49:06;9.50;;;1.73;;
31618;SDS011;18230;51.502;7.108;2023-04-24T13:54:07;6.50;;;2.03;;
31618;SDS011;18230;51.502;7.108;2023-04-24T13:59:08;7.55;;;2.05;;
31618;SDS011;18230;51.502;7.108;2023-04-24T14:04:09;4.65;;;1.77;;
31618;SDS011;18230;51.502;7.108;2023-04-24T14:09:09;11.45;;;1.90;;
31618;SDS011;18230;51.502;7.108;2023-04-24T14:25:18;9.15;;;2.35;;
31618;SDS011;18230;51.502;7.108;2023-04-24T14:30:19;10.35;;;1.75;;
31618;SDS011;18230;51.502;7.108;2023-04-24T14:35:19;3.85;;;1.80;;
31618;SDS011;18230;51.502;7.108;2023-04-24T14:40:20;7.32;;;2.38;;
31618;SDS011;18230;51.502;7.108;2023-04-24T14:45:21;6.57;;;2.03;;
31618;SDS011;18230;51.502;7.108;2023-04-24T14:50:22;11.45;;;2.58;;
31618;SDS011;18230;51.502;7.108;2023-04-24T14:55:23;6.22;;;2.50;;
31618;SDS011;18230;51.502;7.108;2023-04-24T15:00:26;7.70;;;3.03;;
31618;SDS011;18230;51.502;7.108;2023-04-24T15:05:26;8.15;;;3.33;;
31618;SDS011;18230;51.502;7.108;2023-04-24T15:10:27;7.65;;;3.17;;
31618;SDS011;18230;51.502;7.108;2023-04-24T15:15:29;7.82;;;2.70;;
31618;SDS011;18230;51.502;7.108;2023-04-24T15:20:30;10.55;;;2.90;;
31618;SDS011;18230;51.502;7.108;2023-04-24T15:25:32;6.75;;;2.30;;
31618;SDS011;18230;51.502;7.108;2023-04-24T15:30:32;6.70;;;2.80;;
31618;SDS011;18230;51.502;7.108;2023-04-24T15:35:33;6.63;;;2.53;;
31618;SDS011;18230;51.502;7.108;2023-04-24T15:40:34;4.72;;;2.10;;
31618;SDS011;18230;51.502;7.108;2023-04-24T15:45:35;8.00;;;2.33;;
31618;SDS011;18230;51.502;7.108;2023-04-24T15:50:36;6.78;;;1.88;;
31618;SDS011;18230;51.502;7.108;2023-04-24T15:55:37;13.68;;;2.00;;
31618;SDS011;18230;51.502;7.108;2023-04-24T16:00:38;4.82;;;1.40;;
31618;SDS011;18230;51.502;7.108;2023-04-24T16:05:39;6.28;;;1.95;;
31618;SDS011;18230;51.502;7.108;2023-04-24T16:10:44;9.95;;;1.88;;
31618;SDS011;18230;51.502;7.108;2023-04-24T16:15:46;5.45;;;2.05;;
31618;SDS011;18230;51.502;7.108;2023-04-24T16:20:47;5.32;;;1.55;;
31618;SDS011;18230;51.502;7.108;2023-04-24T16:25:47;4.95;;;1.60;;
31618;SDS011;18230;51.502;7.108;2023-04-24T16:30:48;6.70;;;2.03;;
31618;SDS011;18230;51.502;7.108;2023-04-24T16:35:49;6.80;;;1.85;;
31618;SDS011;18230;51.502;7.108;2023-04-24T16:40:50;6.72;;;2.45;;
31618;SDS011;18230;51.502;7.108;2023-04-24T16:45:50;6.35;;;2.30;;
31618;SDS011;18230;51.502;7.108;2023-04-24T16:50:51;4.88;;;1.80;;
31618;SDS011;18230;51.502;7.108;2023-04-24T16:55:53;5.88;;;2.00;;
31618;SDS011;18230;51.502;7.108;2023-04-24T17:00:53;8.32;;;2.65;;
31618;SDS011;18230;51.502;7.108;2023-04-24T17:05:54;6.53;;;2.50;;
31618;SDS011;18230;51.502;7.108;2023-04-24T17:10:55;11.90;;;2.75;;
31618;SDS011;18230;51.502;7.108;2023-04-24T17:15:56;12.90;;;2.60;;
31618;SDS011;18230;51.502;7.108;2023-04-24T17:20:57;5.60;;;2.10;;
31618;SDS011;18230;51.502;7.108;2023-04-24T17:25:57;8.57;;;2.30;;
31618;SDS011;18230;51.502;7.108;2023-04-24T17:30:58;4.53;;;2.20;;
31618;SDS011;18230;51.502;7.108;2023-04-24T17:36:00;8.98;;;2.00;;
31618;SDS011;18230;51.502;7.108;2023-04-24T17:41:01;9.80;;;2.08;;
31618;SDS011;18230;51.502;7.108;2023-04-24T17:46:01;7.35;;;2.40;;
31618;SDS011;18230;51.502;7.108;2023-04-24T17:51:02;11.63;;;3.28;;
31618;SDS011;18230;51.502;7.108;2023-04-24T17:56:03;6.20;;;2.10;;
31618;SDS011;18230;51.502;7.108;2023-04-24T18:01:04;8.93;;;2.50;;
31618;SDS011;18230;51.502;7.108;2023-04-24T18:06:05;9.52;;;3.03;;
31618;SDS011;18230;51.502;7.108;2023-04-24T18:11:06;11.00;;;2.80;;
31618;SDS011;18230;51.502;7.108;2023-04-24T18:16:07;15.23;;;3.50;;
31618;SDS011;18230;51.502;7.108;2023-04-24T18:21:08;12.43;;;3.50;;
31618;SDS011;18230;51.502;7.108;2023-04-24T18:26:08;17.27;;;3.80;;
31618;SDS011;18230;51.502;7.108;2023-04-24T18:31:09;16.42;;;3.50;;
31618;SDS011;18230;51.502;7.108;2023-04-24T18:36:10;15.68;;;3.88;;
31618;SDS011;18230;51.502;7.108;2023-04-24T18:41:11;16.70;;;3.75;;
31618;SDS011;18230;51.502;7.108;2023-04-24T18:46:13;15.63;;;3.85;;
31618;SDS011;18230;51.502;7.108;2023-04-24T18:51:14;13.65;;;3.35;;
31618;SDS011;18230;51.502;7.108;2023-04-24T18:56:14;11.18;;;3.35;;
31618;SDS011;18230;51.502;7.108;2023-04-24T19:01:15;15.52;;;4.18;;
31618;SDS011;18230;51.502;7.108;2023-04-24T19:06:16;14.00;;;3.88;;
31618;SDS011;18230;51.502;7.108;2023-04-24T19:11:19;13.02;;;3.72;;
31618;SDS011;18230;51.502;7.108;2023-04-24T19:16:20;15.35;;;4.63;;
31618;SDS011;18230;51.502;7.108;2023-04-24T19:21:20;14.95;;;5.10;;
31618;SDS011;18230;51.502;7.108;2023-04-24T19:26:22;13.65;;;4.60;;
31618;SDS011;18230;51.502;7.108;2023-04-24T19:31:26;16.98;;;5.43;;
31618;SDS011;18230;51.502;7.108;2023-04-24T19:36:28;18.30;;;5.15;;
31618;SDS011;18230;51.502;7.108;2023-04-24T19:41:30;22.35;;;5.20;;
31618;SDS011;18230;51.502;7.108;2023-04-24T19:46:31;18.60;;;5.55;;
31618;SDS011;18230;51.502;7.108;2023-04-24T19:51:31;14.98;;;4.85;;
31618;SDS011;18230;51.502;7.108;2023-04-24T19:56:32;17.50;;;5.50;;
31618;SDS011;18230;51.502;7.108;2023-04-24T20:01:33;14.82;;;5.68;;
31618;SDS011;18230;51.502;7.108;2023-04-24T20:06:34;20.65;;;5.65;;
31618;SDS011;18230;51.502;7.108;2023-04-24T20:11:35;19.77;;;6.18;;
31618;SDS011;18230;51.502;7.108;2023-04-24T20:16:36;15.35;;;6.07;;
31618;SDS011;18230;51.502;7.108;2023-04-24T20:21:37;17.60;;;6.18;;
31618;SDS011;18230;51.502;7.108;2023-04-24T20:26:38;17.00;;;6.57;;
31618;SDS011;18230;51.502;7.108;2023-04-24T20:31:39;17.40;;;7.00;;
31618;SDS011;18230;51.502;7.108;2023-04-24T20:36:40;19.52;;;6.75;;
31618;SDS011;18230;51.502;7.108;2023-04-24T20:41:42;22.77;;;7.03;;
31618;SDS011;18230;51.502;7.108;2023-04-24T20:46:45;18.05;;;6.43;;
31618;SDS011;18230;51.502;7.108;2023-04-24T20:51:45;21.13;;;6.00;;
31618;SDS011;18230;51.502;7.108;2023-04-24T20:56:46;18.58;;;6.00;;
31618;SDS011;18230;51.502;7.108;2023-04-24T21:01:47;17.33;;;5.00;;
31618;SDS011;18230;51.502;7.108;2023-04-24T21:06:49;16.13;;;5.65;;
31618;SDS011;18230;51.502;7.108;2023-04-24T21:11:50;19.98;;;5.22;;
31618;SDS011;18230;51.502;7.108;2023-04-24T21:16:50;21.38;;;6.10;;
31618;SDS011;18230;51.502;7.108;2023-04-24T21:21:51;16.15;;;5.60;;
31618;SDS011;18230;51.502;7.108;2023-04-24T21:26:52;20.77;;;5.30;;
31618;SDS011;18230;51.502;7.108;2023-04-24T21:31:53;14.18;;;5.28;;
31618;SDS011;18230;51.502;7.108;2023-04-24T21:36:53;19.35;;;5.93;;
31618;SDS011;18230;51.502;7.108;2023-04-24T21:41:54;20.02;;;6.18;;
31618;SDS011;18230;51.502;7.108;2023-04-24T21:46:56;21.73;;;7.03;;
31618;SDS011;18230;51.502;7.108;2023-04-24T21:52:01;15.85;;;6.53;;
31618;SDS011;18230;51.502;7.108;2023-04-24T21:57:01;16.55;;;5.95;;
31618;SDS011;18230;51.502;7.108;2023-04-24T22:02:02;25.35;;;6.88;;
31618;SDS011;18230;51.502;7.108;2023-04-24T22:07:03;24.98;;;6.35;;
31618;SDS011;18230;51.502;7.108;2023-04-24T22:12:04;21.65;;;7.82;;
31618;SDS011;18230;51.502;7.108;2023-04-24T22:17:05;24.65;;;7.15;;
31618;SDS011;18230;51.502;7.108;2023-04-24T22:22:08;20.50;;;6.88;;
31618;SDS011;18230;51.502;7.108;2023-04-24T22:27:09;21.88;;;6.38;;
31618;SDS011;18230;51.502;7.108;2023-04-24T22:32:10;16.40;;;5.68;;
31618;SDS011;18230;51.502;7.108;2023-04-24T22:37:10;31.38;;;6.32;;
31618;SDS011;18230;51.502;7.108;2023-04-24T22:42:11;19.17;;;6.43;;
31618;SDS011;18230;51.502;7.108;2023-04-24T22:47:12;17.80;;;6.85;;
31618;SDS011;18230;51.502;7.108;2023-04-24T22:52:13;28.33;;;8.02;;
31618;SDS011;18230;51.502;7.108;2023-04-24T22:57:13;20.00;;;6.50;;
31618;SDS011;18230;51.502;7.108;2023-04-24T23:02:14;21.25;;;6.38;;
31618;SDS011;18230;51.502;7.108;2023-04-24T23:07:15;20.80;;;6.70;;
31618;SDS011;18230;51.502;7.108;2023-04-24T23:12:16;23.98;;;6.90;;
31618;SDS011;18230;51.502;7.108;2023-04-24T23:17:17;16.92;;;6.55;;
31618;SDS011;18230;51.502;7.108;2023-04-24T23:22:18;27.25;;;7.78;;
31618;SDS011;18230;51.502;7.108;2023-04-24T23:27:19;16.30;;;6.85;;
31618;SDS011;18230;51.502;7.108;2023-04-24T23:32:19;30.77;;;7.63;;
31618;SDS011;18230;51.502;7.108;2023-04-24T23:37:20;29.38;;;7.28;;
31618;SDS011;18230;51.502;7.108;2023-04-24T23:42:21;28.63;;;7.20;;
31618;SDS011;18230;51.502;7.108;2023-04-24T23:47:22;17.98;;;6.32;;
31618;SDS011;18230;51.502;7.108;2023-04-24T23:52:23;22.65;;;6.30;;
31618;SDS011;18230;51.502;7.108;2023-04-24T23:57:24;25.63;;;7.18;;
